Time;durP1;ratioP1;P1;durP2;ratioP2;P2;SDS_P1;SDS_P2;PMS_P1;PMS_P2;Temp;Humidity;BMP_temperature;BMP_pressure;BME280_temperature;BME280_humidity;BME280_pressure;Samples;Min_cycle;Max_cycle;Signal;HPM_P1;HPM_P2
2023/05/05 00:00:51;;;;;;;5.30;4.40;;;;;;;10.25;100.00;96448.25;5008346;28;101995;-60
2023/05/05 00:03:50;;;;;;;4.70;4.30;;;;;;;10.22;100.00;96454.03;5008686;28;105164;-60
2023/05/05 00:06:17;;;;;;;4.63;4.30;;;;;;;10.22;100.00;96459.34;5007657;28;105911;-60
2023/05/05 00:08:46;;;;;;;5.03;4.57;;;;;;;10.14;100.00;96457.91;5009413;28;102323;-60
2023/05/05 00:11:14;;;;;;;5.33;4.10;;;;;;;9.87;100.00;96456.97;5012514;28;102515;-60
2023/05/05 00:13:52;;;;;;;6.17;4.50;;;;;;;9.89;100.00;96452.25;5028615;27;102229;-60
2023/05/05 00:16:19;;;;;;;4.30;3.90;;;;;;;9.89;100.00;96448.78;5022461;28;104905;-60
2023/05/05 00:18:46;;;;;;;5.03;4.63;;;;;;;9.68;100.00;96446.88;5011166;28;105265;-60
2023/05/05 00:21:14;;;;;;;7.07;5.40;;;;;;;9.75;100.00;96443.00;5026424;28;101873;-60
2023/05/05 00:24:23;;;;;;;5.70;4.50;;;;;;;9.78;100.00;96441.72;5031238;28;105331;-60
2023/05/05 00:26:52;;;;;;;5.97;4.50;;;;;;;9.74;100.00;96441.38;5022042;28;106011;-60
2023/05/05 00:29:19;;;;;;;7.20;4.43;;;;;;;9.62;100.00;96437.22;5029882;28;101775;-60
2023/05/05 00:31:46;;;;;;;6.07;4.40;;;;;;;9.48;100.00;96441.25;5031638;28;104900;-60
2023/05/05 00:34:23;;;;;;;5.67;4.77;;;;;;;9.54;100.00;96440.28;5034128;28;105857;-60
2023/05/05 00:36:50;;;;;;;6.27;4.53;;;;;;;9.43;100.00;96438.53;5005783;28;105239;-60
2023/05/05 00:39:17;;;;;;;5.30;4.77;;;;;;;9.46;100.00;96438.03;5007168;28;104239;-60
2023/05/05 00:41:44;;;;;;;6.10;4.50;;;;;;;9.42;100.00;96447.50;5011586;28;101902;-60
2023/05/05 00:44:46;;;;;;;4.50;4.10;;;;;;;9.47;100.00;96445.75;4998159;28;104838;-60
2023/05/05 00:47:15;;;;;;;5.77;4.70;;;;;;;9.39;100.00;96438.19;5006410;28;104056;-60
2023/05/05 00:49:43;;;;;;;6.47;4.60;;;;;;;9.44;100.00;96440.13;5029739;28;101866;-60
2023/05/05 00:52:11;;;;;;;4.50;3.93;;;;;;;9.38;100.00;96443.75;5031387;28;105099;-60
2023/05/05 00:54:49;;;;;;;6.13;4.67;;;;;;;9.31;100.00;96445.75;5030304;28;103827;-60
2023/05/05 00:57:17;;;;;;;7.80;4.60;;;;;;;9.36;100.00;96433.38;5004141;28;102201;-60
2023/05/05 00:59:46;;;;;;;4.80;4.40;;;;;;;9.41;100.00;96440.59;5010889;28;103923;-60
2023/05/05 01:02:13;;;;;;;4.80;3.97;;;;;;;9.35;100.00;96436.25;5011155;28;101953;-60
2023/05/05 01:04:43;;;;;;;4.10;3.57;;;;;;;9.26;100.00;96438.50;5011218;28;104872;-60
2023/05/05 01:07:24;;;;;;;4.53;4.13;;;;;;;9.22;100.00;96441.88;4995614;28;105855;-60
2023/05/05 01:09:59;;;;;;;5.10;4.50;;;;;;;9.15;100.00;96435.91;5030431;28;102088;-60
2023/05/05 01:12:37;;;;;;;5.43;4.83;;;;;;;8.95;100.00;96440.88;5013597;28;104964;-60
2023/05/05 01:15:20;;;;;;;5.07;4.63;;;;;;;9.04;100.00;96444.75;5030621;28;104287;-60
2023/05/05 01:17:55;;;;;;;5.97;4.43;;;;;;;9.06;100.00;96440.03;5030132;28;102578;-60
2023/05/05 01:20:28;;;;;;;4.87;4.40;;;;;;;9.11;100.00;96434.81;5010284;28;103909;-60
2023/05/05 01:22:59;;;;;;;8.40;5.27;;;;;;;8.92;100.00;96436.06;4992368;28;101927;-60
2023/05/05 01:26:01;;;;;;;8.03;4.77;;;;;;;8.95;100.00;96436.38;4990008;28;105688;-60
2023/05/05 01:28:43;;;;;;;5.27;4.73;;;;;;;8.95;100.00;96430.28;5007024;28;102669;-60
2023/05/05 01:31:23;;;;;;;5.63;4.53;;;;;;;8.90;100.00;96443.44;5029185;28;101829;-60
2023/05/05 01:34:01;;;;;;;5.67;3.83;;;;;;;8.71;100.00;96434.06;5028663;28;105727;-60
2023/05/05 01:36:34;;;;;;;5.37;4.53;;;;;;;8.73;100.00;96439.97;5014291;27;102585;-60
2023/05/05 01:39:03;;;;;;;5.47;4.63;;;;;;;8.56;100.00;96436.47;5010713;28;101811;-60
2023/05/05 01:41:38;;;;;;;4.83;4.33;;;;;;;8.71;100.00;96442.84;5013459;28;105231;-60
2023/05/05 01:44:21;;;;;;;5.40;4.83;;;;;;;8.60;100.00;96437.56;5030402;28;101872;-60
2023/05/05 01:46:50;;;;;;;4.47;4.07;;;;;;;8.68;100.00;96438.00;5000893;28;105121;-60
2023/05/05 01:49:19;;;;;;;5.20;4.70;;;;;;;8.75;100.00;96435.22;4991157;28;102775;-60
2023/05/05 01:51:48;;;;;;;5.47;4.30;;;;;;;8.80;100.00;96440.63;5009446;28;101829;-60
2023/05/05 01:54:28;;;;;;;4.43;4.00;;;;;;;8.83;100.00;96438.28;5010260;28;103981;-60
2023/05/05 01:56:58;;;;;;;5.03;4.50;;;;;;;8.70;100.00;96440.41;5010066;28;106843;-60
2023/05/05 01:59:28;;;;;;;4.90;4.50;;;;;;;8.64;100.00;96439.53;5010334;28;101902;-60
2023/05/05 02:01:57;;;;;;;6.57;4.33;;;;;;;8.59;100.00;96441.28;5010075;28;105240;-60
2023/05/05 02:05:10;;;;;;;4.70;4.30;;;;;;;8.61;100.00;96444.50;5014079;28;105636;-60
2023/05/05 02:07:41;;;;;;;6.40;4.93;;;;;;;8.68;100.00;96434.56;5006519;28;105754;-60
2023/05/05 02:10:12;;;;;;;4.80;4.30;;;;;;;8.55;100.00;96440.13;5018190;28;103017;-60
2023/05/05 02:12:41;;;;;;;4.83;4.37;;;;;;;8.59;100.00;96442.09;5031328;27;101842;-60
2023/05/05 02:15:54;;;;;;;4.83;4.23;;;;;;;8.67;100.00;96444.34;5022784;28;104823;-60
2023/05/05 02:18:23;;;;;;;6.37;3.97;;;;;;;8.42;100.00;96446.53;4989211;28;105730;-60
2023/05/05 02:20:51;;;;;;;6.97;4.13;;;;;;;8.51;100.00;96449.63;5006448;28;102094;-60
2023/05/05 02:23:57;;;;;;;4.23;3.83;;;;;;;8.50;100.00;96451.44;5011017;28;102954;-60
2023/05/05 02:26:25;;;;;;;5.77;4.33;;;;;;;8.28;100.00;96455.00;5009131;28;105485;-60
2023/05/05 02:29:01;;;;;;;6.07;4.03;;;;;;;8.38;100.00;96453.34;5012656;28;102123;-60
2023/05/05 02:31:31;;;;;;;4.67;4.20;;;;;;;8.47;100.00;96453.75;4990544;28;102783;-60
2023/05/05 02:34:05;;;;;;;4.40;4.00;;;;;;;8.41;100.00;96444.91;4989865;28;102051;-60
2023/05/05 02:36:39;;;;;;;4.90;4.40;;;;;;;8.41;100.00;96449.41;4996530;28;105197;-60
2023/05/05 02:39:14;;;;;;;4.43;4.03;;;;;;;8.43;100.00;96444.66;5023592;28;104051;-60
2023/05/05 02:41:47;;;;;;;4.20;3.90;;;;;;;8.41;100.00;96446.75;5029719;28;101910;-60
2023/05/05 02:44:31;;;;;;;4.23;3.73;;;;;;;8.27;100.00;96443.56;5022878;28;105512;-60
2023/05/05 02:46:59;;;;;;;4.53;3.97;;;;;;;8.35;100.00;96450.34;5018650;28;105633;-60
2023/05/05 02:49:27;;;;;;;4.83;3.53;;;;;;;8.12;100.00;96447.72;5009469;28;102167;-60
2023/05/05 02:51:58;;;;;;;4.10;3.80;;;;;;;8.06;100.00;96448.63;5012280;28;103848;-60
2023/05/05 02:54:34;;;;;;;4.97;3.93;;;;;;;8.14;100.00;96443.00;5023598;28;101865;-60
2023/05/05 02:57:06;;;;;;;7.30;4.60;;;;;;;8.18;100.00;96450.22;5009593;28;105555;-60
2023/05/05 02:59:46;;;;;;;4.83;4.37;;;;;;;8.06;100.00;96452.09;5009406;28;105627;-60
2023/05/05 03:02:22;;;;;;;4.70;4.17;;;;;;;8.14;100.00;96448.28;5009624;28;101904;-60
2023/05/05 03:05:11;;;;;;;4.80;4.17;;;;;;;7.98;100.00;96451.66;5014814;28;105218;-60
2023/05/05 03:07:52;;;;;;;5.17;4.43;;;;;;;8.01;100.00;96448.56;5013482;28;105421;-60
2023/05/05 03:10:26;;;;;;;4.60;4.20;;;;;;;7.93;100.00;96452.34;5009351;28;102013;-60
2023/05/05 03:12:56;;;;;;;4.63;4.07;;;;;;;7.90;100.00;96449.38;5009100;28;104441;-60
2023/05/05 03:15:36;;;;;;;8.00;4.60;;;;;;;7.84;100.00;96453.75;5022112;28;105430;-60
2023/05/05 03:18:04;;;;;;;5.87;4.50;;;;;;;7.83;100.00;96456.63;4994024;28;105099;-60
2023/05/05 03:20:32;;;;;;;4.90;4.40;;;;;;;7.93;100.00;96455.00;5000738;28;102554;-60
2023/05/05 03:23:05;;;;;;;5.93;4.47;;;;;;;8.00;100.00;96452.22;5009011;28;102334;-60
2023/05/05 03:25:45;;;;;;;5.97;4.67;;;;;;;8.05;100.00;96450.50;5008932;28;105506;-60
2023/05/05 03:28:18;;;;;;;4.87;4.47;;;;;;;8.13;100.00;96455.41;5008044;28;105786;-60
2023/05/05 03:30:45;;;;;;;6.20;5.50;;;;;;;8.13;100.00;96452.78;5009814;28;101833;-60
2023/05/05 03:33:35;;;;;;;5.77;4.90;;;;;;;8.10;100.00;96452.44;5010239;28;102663;-60
2023/05/05 03:36:02;;;;;;;5.10;4.63;;;;;;;8.19;100.00;96459.00;5029166;28;102498;-60
2023/05/05 03:38:30;;;;;;;5.80;4.83;;;;;;;8.17;100.00;96448.63;5008844;28;105084;-60
2023/05/05 03:41:01;;;;;;;4.87;4.43;;;;;;;8.16;100.00;96446.19;5025192;28;102450;-60
2023/05/05 03:44:00;;;;;;;5.40;4.80;;;;;;;8.16;100.00;96456.78;5028686;28;102048;-60
2023/05/05 03:46:27;;;;;;;5.73;5.13;;;;;;;8.18;100.00;96449.44;5025776;28;102358;-60
2023/05/05 03:48:56;;;;;;;5.70;4.83;;;;;;;8.20;100.00;96452.69;5016261;28;105550;-60
2023/05/05 03:51:24;;;;;;;6.20;5.60;;;;;;;8.27;100.00;96458.66;5035256;28;102094;-60
2023/05/05 03:54:32;;;;;;;5.60;4.97;;;;;;;8.22;100.00;96462.00;5032329;28;104486;-60
2023/05/05 03:57:01;;;;;;;9.30;5.27;;;;;;;8.29;100.00;96464.53;5007110;28;105298;-60
2023/05/05 03:59:28;;;;;;;5.37;4.87;;;;;;;8.26;100.00;96454.41;5018785;28;101999;-60
2023/05/05 04:01:55;;;;;;;5.33;4.83;;;;;;;8.28;100.00;96455.78;5015645;28;105240;-60
2023/05/05 04:05:03;;;;;;;7.20;4.67;;;;;;;7.98;100.00;96460.41;5033163;28;102020;-60
2023/05/05 04:07:30;;;;;;;7.30;5.60;;;;;;;8.09;100.00;96456.94;5025459;28;101686;-60
2023/05/05 04:09:57;;;;;;;5.07;4.57;;;;;;;7.94;100.00;96453.16;5014514;28;105354;-60
2023/05/05 04:12:25;;;;;;;7.73;5.50;;;;;;;8.11;100.00;96454.03;5014887;28;102110;-60
2023/05/05 04:15:24;;;;;;;6.50;5.17;;;;;;;8.17;100.00;96455.75;5029914;28;105339;-60
2023/05/05 04:17:51;;;;;;;5.97;5.37;;;;;;;8.15;100.00;96463.13;5006573;28;105103;-60
2023/05/05 04:20:19;;;;;;;7.17;6.10;;;;;;;8.27;100.00;96462.13;4996734;28;102240;-60
2023/05/05 04:22:46;;;;;;;7.40;5.80;;;;;;;8.28;100.00;96471.66;5017622;28;105693;-60
2023/05/05 04:25:18;;;;;;;7.47;4.97;;;;;;;8.43;100.00;96468.50;5032762;28;101935;-60
2023/05/05 04:27:47;;;;;;;5.93;5.37;;;;;;;8.56;100.00;96468.25;5008751;28;104823;-60
2023/05/05 04:30:15;;;;;;;6.63;6.00;;;;;;;8.70;100.00;96462.44;5013762;28;105300;-60
2023/05/05 04:32:43;;;;;;;6.03;5.47;;;;;;;8.69;100.00;96463.50;5014762;28;101882;-60
2023/05/05 04:35:22;;;;;;;7.40;4.77;;;;;;;8.77;100.00;96465.75;5031889;28;105201;-60
2023/05/05 04:37:50;;;;;;;5.37;4.87;;;;;;;8.87;100.00;96478.38;5020899;28;105394;-60
2023/05/05 04:40:18;;;;;;;7.67;5.43;;;;;;;8.95;100.00;96478.81;5015588;28;102181;-60
2023/05/05 04:42:47;;;;;;;7.03;5.47;;;;;;;9.08;100.00;96475.06;5014555;28;105231;-60
2023/05/05 04:48:37;;;;;;;6.77;5.47;;;;;;;9.23;100.00;96480.66;5028682;28;105290;-60
2023/05/05 04:51:05;;;;;;;6.47;5.67;;;;;;;9.27;100.00;96476.47;5024283;28;105268;-60
2023/05/05 04:53:43;;;;;;;7.13;5.80;;;;;;;9.33;100.00;96476.28;5034130;28;101969;-60
2023/05/05 04:56:10;;;;;;;6.40;5.70;;;;;;;9.32;100.00;96484.53;5034347;28;105216;-60
2023/05/05 04:58:38;;;;;;;7.53;5.90;;;;;;;9.30;100.00;96481.28;5002029;28;105070;-60
2023/05/05 05:01:06;;;;;;;8.67;6.00;;;;;;;9.39;100.00;96483.28;5011207;28;101992;-60
2023/05/05 05:03:33;;;;;;;7.23;6.30;;;;;;;9.42;100.00;96482.00;5016829;28;105184;-60
2023/05/05 05:06:00;;;;;;;6.00;5.20;;;;;;;9.37;100.00;96482.75;5030768;28;105007;-60
2023/05/05 05:08:28;;;;;;;10.87;6.40;;;;;;;9.45;100.00;96486.84;5007205;27;101868;-60
2023/05/05 05:10:55;;;;;;;8.73;6.10;;;;;;;9.52;100.00;96492.81;5010759;28;105027;-60
2023/05/05 05:13:22;;;;;;;7.40;6.00;;;;;;;9.64;100.00;96494.34;5015067;28;102094;-60
2023/05/05 05:15:52;;;;;;;8.47;6.00;;;;;;;9.75;100.00;96495.31;5031280;28;105087;-60
2023/05/05 05:18:19;;;;;;;10.00;6.40;;;;;;;9.99;100.00;96492.25;5006755;28;105539;-60
2023/05/05 05:20:47;;;;;;;7.90;6.07;;;;;;;9.87;100.00;96496.81;5031306;28;102177;-60
2023/05/05 05:23:19;;;;;;;7.97;6.10;;;;;;;10.30;100.00;96496.16;5029423;28;103659;-60
2023/05/05 05:25:46;;;;;;;13.10;9.00;;;;;;;10.40;100.00;96499.72;5029652;28;104489;-60
2023/05/05 05:28:16;;;;;;;13.70;8.57;;;;;;;10.63;100.00;96498.69;5013598;28;102129;-60
2023/05/05 05:30:48;;;;;;;10.47;7.83;;;;;;;10.61;100.00;96492.81;5014172;28;105197;-60
2023/05/05 05:33:23;;;;;;;9.23;7.07;;;;;;;10.76;100.00;96508.94;5012432;28;102153;-60
2023/05/05 05:35:52;;;;;;;8.43;6.57;;;;;;;10.89;100.00;96501.41;5011925;28;105182;-60
2023/05/05 05:38:20;;;;;;;9.23;7.23;;;;;;;11.17;100.00;96500.38;4993918;28;105167;-60
2023/05/05 05:40:49;;;;;;;11.57;6.83;;;;;;;11.18;100.00;96504.66;4992431;28;102032;-60
2023/05/05 05:43:54;;;;;;;12.77;9.13;;;;;;;11.29;100.00;96495.69;5028264;28;105283;-60
2023/05/05 05:46:21;;;;;;;13.40;8.47;;;;;;;11.52;100.00;96509.50;5017307;28;105106;-60
2023/05/05 05:48:49;;;;;;;8.20;6.97;;;;;;;11.55;100.00;96497.53;5016188;28;101880;-60
2023/05/05 05:51:17;;;;;;;7.40;6.70;;;;;;;11.92;100.00;96503.72;5033804;28;104910;-60
2023/05/05 05:53:53;;;;;;;10.70;6.77;;;;;;;11.84;100.00;96497.00;5030395;28;102350;-61
2023/05/05 05:56:20;;;;;;;7.80;6.87;;;;;;;12.16;100.00;96499.63;5028236;28;104853;-61
2023/05/05 05:58:48;;;;;;;7.73;6.30;;;;;;;12.39;100.00;96504.56;5000144;28;104095;-62
2023/05/05 06:01:16;;;;;;;7.70;6.73;;;;;;;12.61;100.00;96507.88;5022290;28;102047;-61
2023/05/05 06:04:18;;;;;;;7.73;5.93;;;;;;;12.73;100.00;96501.25;5026214;28;105693;-61
2023/05/05 06:06:45;;;;;;;7.00;5.60;;;;;;;12.92;100.00;96505.06;5027911;28;105441;-62
2023/05/05 06:09:12;;;;;;;8.87;7.13;;;;;;;13.15;100.00;96495.81;5029554;28;101964;-62
2023/05/05 06:11:39;;;;;;;7.63;6.60;;;;;;;13.32;100.00;96499.88;5016524;27;103860;-61
2023/05/05 06:14:06;;;;;;;9.33;6.40;;;;;;;13.46;100.00;96500.94;5033020;28;103876;-62
2023/05/05 06:16:32;;;;;;;7.13;5.80;;;;;;;13.55;100.00;96498.56;5029964;28;104836;-60
2023/05/05 06:19:04;;;;;;;7.53;5.20;;;;;;;13.71;100.00;96492.16;5010884;28;105173;-61
2023/05/05 06:21:32;;;;;;;5.60;5.10;;;;;;;13.97;100.00;96496.44;5011783;28;101925;-62
2023/05/05 06:24:22;;;;;;;6.40;5.20;;;;;;;14.30;100.00;96502.03;5029606;28;105520;-62
2023/05/05 06:26:49;;;;;;;7.47;5.50;;;;;;;14.48;100.00;96503.31;5028068;28;105450;-61
2023/05/05 06:29:16;;;;;;;6.23;5.60;;;;;;;14.64;100.00;96500.34;5019959;28;102254;-61
2023/05/05 06:31:43;;;;;;;5.90;5.40;;;;;;;14.79;100.00;96504.84;5029204;28;104815;-61
2023/05/05 06:34:14;;;;;;;9.30;5.53;;;;;;;14.76;100.00;96494.66;5015533;28;103908;-61
2023/05/05 06:36:42;;;;;;;8.27;5.40;;;;;;;14.81;100.00;96498.13;5031150;28;102062;-61
2023/05/05 06:39:09;;;;;;;5.40;4.70;;;;;;;14.96;100.00;96497.25;5009670;28;103919;-61
2023/05/05 06:41:36;;;;;;;6.40;4.60;;;;;;;15.42;100.00;96494.09;5015270;28;101917;-62
2023/05/05 06:44:47;;;;;;;5.70;4.87;;;;;;;15.48;100.00;96497.56;5029757;28;105162;-62
2023/05/05 06:47:14;;;;;;;6.63;4.40;;;;;;;15.58;100.00;96492.13;5012949;28;104067;-62
2023/05/05 06:49:41;;;;;;;5.07;4.47;;;;;;;15.83;100.00;96494.59;5013356;28;102010;-62
2023/05/05 06:52:10;;;;;;;4.97;4.13;;;;;;;16.05;100.00;96495.75;5029162;28;103616;-61
2023/05/05 06:54:39;;;;;;;5.93;4.50;;;;;;;16.00;100.00;96501.16;5028854;28;103775;-61
2023/05/05 06:57:06;;;;;;;7.70;3.80;;;;;;;16.28;100.00;96496.88;5023914;28;102141;-62
2023/05/05 06:59:32;;;;;;;4.13;3.23;;;;;;;16.32;100.00;96498.72;4996358;28;105114;-61
2023/05/05 07:01:59;;;;;;;3.83;3.17;;;;;;;16.34;100.00;96501.09;5010581;28;102151;-63
2023/05/05 07:05:14;;;;;;;6.10;3.27;;;;;;;15.99;100.00;96493.41;5010425;28;105095;-61
2023/05/05 07:07:51;;;;;;;3.70;3.40;;;;;;;16.00;100.00;96501.16;5020459;28;104283;-61
2023/05/05 07:10:18;;;;;;;3.63;2.90;;;;;;;16.00;100.00;96490.44;5027439;28;101865;-61
2023/05/05 07:12:45;;;;;;;4.53;3.10;;;;;;;15.96;100.00;96500.13;5027549;28;105191;-61
2023/05/05 07:18:34;;;;;;;4.67;2.73;;;;;;;16.20;100.00;96497.50;5027083;28;102013;-61
2023/05/05 07:21:01;;;;;;;3.47;3.13;;;;;;;16.40;100.00;96500.81;5028985;28;103894;-61
2023/05/05 07:23:37;;;;;;;4.67;2.77;;;;;;;16.52;100.00;96495.06;5019559;27;105540;-61
2023/05/05 07:26:05;;;;;;;4.17;3.10;;;;;;;16.57;100.00;96500.38;4993279;28;104117;-61
2023/05/05 07:28:31;;;;;;;7.20;3.10;;;;;;;16.99;100.00;96505.78;5006533;28;105762;-61
2023/05/05 07:30:58;;;;;;;3.57;2.70;;;;;;;17.06;100.00;96498.19;5010210;28;101981;-61
2023/05/05 07:33:57;;;;;;;4.37;3.10;;;;;;;17.25;100.00;96493.63;5017825;28;105631;-61
2023/05/05 07:36:26;;;;;;;5.30;2.63;;;;;;;17.11;100.00;96500.81;5024853;28;105136;-62
2023/05/05 07:38:55;;;;;;;4.33;3.20;;;;;;;17.34;100.00;96499.97;4989220;28;101882;-61
2023/05/05 07:41:21;;;;;;;4.07;2.70;;;;;;;17.45;100.00;96496.84;5024621;28;103537;-62
2023/05/05 07:43:53;;;;;;;2.87;2.60;;;;;;;17.51;100.00;96489.53;5028069;28;103785;-62
2023/05/05 07:46:20;;;;;;;3.17;2.27;;;;;;;17.68;100.00;96493.31;5015287;28;101990;-62
2023/05/05 07:48:47;;;;;;;2.60;2.30;;;;;;;18.10;100.00;96495.06;5021578;28;105874;-61
2023/05/05 07:51:14;;;;;;;3.90;2.60;;;;;;;18.31;100.00;96493.63;5012306;28;102215;-61
2023/05/05 07:54:17;;;;;;;3.07;2.30;;;;;;;18.67;100.00;96491.88;5008635;28;105121;-61
2023/05/05 07:56:45;;;;;;;4.10;2.00;;;;;;;18.84;100.00;96498.28;5009330;28;105094;-60
2023/05/05 07:59:12;;;;;;;3.23;2.10;;;;;;;18.87;100.00;96499.59;4991497;28;101970;-61
2023/05/05 08:01:39;;;;;;;3.57;2.10;;;;;;;19.29;100.00;96497.38;5027877;28;105221;-61
2023/05/05 08:04:08;;;;;;;4.20;2.07;;;;;;;19.59;98.20;96501.31;5027031;28;105599;-62
2023/05/05 08:06:35;;;;;;;4.47;1.97;;;;;;;19.76;100.00;96496.88;5013297;28;101935;-61
2023/05/05 08:09:02;;;;;;;1.80;1.70;;;;;;;19.90;91.68;96491.41;5020813;28;104967;-61
2023/05/05 08:11:30;;;;;;;4.47;1.90;;;;;;;19.84;96.30;96495.34;5028128;28;101974;-61
2023/05/05 08:14:05;;;;;;;2.10;1.90;;;;;;;19.85;98.00;96492.34;5028730;28;104720;-61
2023/05/05 08:16:32;;;;;;;3.53;1.83;;;;;;;19.81;99.52;96496.75;5027447;28;105392;-63
2023/05/05 08:18:59;;;;;;;4.13;1.80;;;;;;;19.57;100.00;96492.72;5015011;28;101879;-63
2023/05/05 08:21:26;;;;;;;2.00;1.80;;;;;;;19.45;100.00;96497.88;5022308;28;103686;-63
2023/05/05 08:24:02;;;;;;;3.30;2.03;;;;;;;19.74;98.87;96500.97;5007858;28;105613;-63
2023/05/05 08:26:31;;;;;;;2.80;1.80;;;;;;;19.98;90.97;96496.06;5009812;28;101904;-63
2023/05/05 08:28:59;;;;;;;2.87;1.97;;;;;;;20.26;93.68;96492.97;4990802;28;105370;-63
2023/05/05 08:31:27;;;;;;;2.97;2.00;;;;;;;20.34;85.96;96489.53;5016989;28;101854;-61
2023/05/05 08:34:26;;;;;;;2.97;1.90;;;;;;;20.12;87.33;96486.03;5029100;27;104755;-62
2023/05/05 08:36:52;;;;;;;2.70;1.90;;;;;;;20.44;84.65;96488.47;5027637;28;105830;-62
2023/05/05 08:39:19;;;;;;;2.00;1.90;;;;;;;20.32;91.46;96497.13;5001106;28;102105;-62
2023/05/05 08:41:48;;;;;;;2.80;2.07;;;;;;;20.55;82.78;96484.38;5027033;28;105613;-62
2023/05/05 08:44:31;;;;;;;1.60;1.50;;;;;;;20.64;80.35;96479.78;5032400;27;102631;-62
2023/05/05 08:47:00;;;;;;;1.90;1.80;;;;;;;20.69;83.98;96485.88;5031065;28;101877;-63
2023/05/05 08:49:37;;;;;;;3.20;1.80;;;;;;;20.86;84.80;96485.94;5011869;28;104785;-62
2023/05/05 08:52:08;;;;;;;2.10;1.93;;;;;;;20.78;77.25;96494.81;5011147;28;105497;-62
2023/05/05 08:54:40;;;;;;;1.80;1.70;;;;;;;20.44;77.75;96485.75;5010612;28;105289;-61
2023/05/05 08:57:10;;;;;;;1.90;1.80;;;;;;;20.86;80.67;96487.84;5012335;28;102609;-64
2023/05/05 08:59:39;;;;;;;2.10;1.93;;;;;;;20.88;77.99;96486.41;5012342;28;102595;-62
2023/05/05 09:02:08;;;;;;;2.83;1.70;;;;;;;20.95;78.01;96480.59;5021428;28;103599;-62
2023/05/05 09:04:49;;;;;;;1.80;1.70;;;;;;;20.93;82.77;96482.81;5019365;28;106053;-63
2023/05/05 09:07:16;;;;;;;3.27;1.80;;;;;;;21.58;82.68;96475.47;5027288;28;102331;-63
2023/05/05 09:09:44;;;;;;;3.10;1.50;;;;;;;21.76;73.99;96482.50;5014139;28;104947;-62
2023/05/05 09:12:12;;;;;;;2.00;1.90;;;;;;;21.50;71.10;96482.47;5018268;28;105225;-62
2023/05/05 09:14:39;;;;;;;2.43;1.80;;;;;;;21.83;75.70;96475.50;5016850;28;102173;-62
2023/05/05 09:17:06;;;;;;;2.93;1.70;;;;;;;22.15;69.14;96468.78;5012498;28;105424;-63
2023/05/05 09:19:33;;;;;;;2.10;1.90;;;;;;;21.97;69.73;96467.22;5016940;28;102016;-62
2023/05/05 09:22:00;;;;;;;2.10;2.00;;;;;;;22.07;71.49;96466.88;5030985;28;103749;-63
2023/05/05 09:24:55;;;;;;;1.83;1.67;;;;;;;22.13;68.23;96457.47;5022872;28;105535;-63
2023/05/05 09:27:27;;;;;;;2.67;1.63;;;;;;;22.48;71.75;96459.81;5017958;28;102057;-63
2023/05/05 09:29:55;;;;;;;1.87;1.70;;;;;;;22.58;68.69;96459.47;5013940;28;102514;-61
2023/05/05 09:32:22;;;;;;;1.87;1.77;;;;;;;22.75;70.16;96450.44;5030364;27;103017;-63
2023/05/05 09:35:31;;;;;;;1.97;1.87;;;;;;;23.03;64.93;96449.66;5029729;27;101876;-68
2023/05/05 09:38:10;;;;;;;2.17;1.90;;;;;;;22.88;66.47;96449.44;5016407;28;105693;-63
2023/05/05 09:40:46;;;;;;;6.63;2.37;;;;;;;22.84;67.33;96449.28;5002696;28;102090;-63
2023/05/05 09:43:14;;;;;;;1.93;1.73;;;;;;;23.35;62.85;96445.50;5014747;28;104939;-63
2023/05/05 09:45:42;;;;;;;1.93;1.83;;;;;;;23.20;65.40;96446.09;5024386;28;104033;-62
2023/05/05 09:48:22;;;;;;;3.47;1.97;;;;;;;23.46;64.68;96450.22;5017645;28;102210;-63
2023/05/05 09:50:50;;;;;;;2.27;1.87;;;;;;;23.34;65.87;96435.78;5017012;28;104070;-63
2023/05/05 09:53:39;;;;;;;3.13;2.03;;;;;;;23.57;61.47;96434.34;5004154;28;103758;-61
2023/05/05 09:56:07;;;;;;;2.73;2.40;;;;;;;23.51;57.79;96433.75;5020245;28;102041;-63
2023/05/05 09:58:35;;;;;;;2.07;1.90;;;;;;;23.86;56.64;96434.25;5009165;28;102893;-63
2023/05/05 10:01:02;;;;;;;2.13;2.00;;;;;;;24.25;60.27;96431.81;5012297;28;103750;-62
2023/05/05 10:03:31;;;;;;;3.13;1.87;;;;;;;24.54;57.46;96431.66;5010113;28;105099;-62
2023/05/05 10:05:59;;;;;;;2.27;1.97;;;;;;;23.70;57.57;96428.63;5009742;28;103659;-62
2023/05/05 10:08:28;;;;;;;3.20;2.27;;;;;;;23.63;56.25;96430.28;5009019;28;102013;-62
2023/05/05 10:10:58;;;;;;;3.67;2.13;;;;;;;24.02;55.57;96435.22;5010742;28;102312;-63
2023/05/05 10:13:26;;;;;;;4.40;2.10;;;;;;;24.47;52.86;96425.19;5009809;28;103168;-62
2023/05/05 10:15:56;;;;;;;3.47;2.10;;;;;;;24.68;51.71;96429.44;5010363;28;102301;-62
2023/05/05 10:18:24;;;;;;;2.20;2.00;;;;;;;24.31;50.24;96424.25;5008593;28;104778;-62
2023/05/05 10:20:57;;;;;;;3.10;2.30;;;;;;;24.47;51.12;96425.97;5011675;28;105038;-62
2023/05/05 10:23:27;;;;;;;2.20;1.93;;;;;;;24.69;50.62;96422.06;5000930;28;104758;-62
2023/05/05 10:26:01;;;;;;;4.03;1.90;;;;;;;25.60;49.69;96420.28;5010154;28;105086;-63
2023/05/05 10:28:33;;;;;;;2.00;1.90;;;;;;;25.44;46.10;96410.47;5000054;28;102583;-62
2023/05/05 10:31:05;;;;;;;3.43;2.27;;;;;;;25.27;48.74;96408.00;5008857;28;105163;-62
2023/05/05 10:33:44;;;;;;;3.53;1.90;;;;;;;25.47;53.38;96409.78;5008368;28;103996;-62
2023/05/05 10:36:12;;;;;;;3.00;2.20;;;;;;;25.18;50.53;96396.44;5003513;28;102240;-63
2023/05/05 10:38:40;;;;;;;2.13;2.03;;;;;;;25.07;51.15;96390.66;5016312;28;102610;-62
2023/05/05 10:41:10;;;;;;;3.10;2.10;;;;;;;25.28;51.36;96396.00;5009339;28;103239;-62
2023/05/05 10:43:37;;;;;;;2.50;2.10;;;;;;;25.49;54.00;96393.88;5011965;28;102047;-63
2023/05/05 10:46:06;;;;;;;3.07;1.97;;;;;;;25.93;51.81;96392.88;5008215;28;105135;-62
2023/05/05 10:48:38;;;;;;;2.67;2.07;;;;;;;26.28;48.25;96385.63;4996795;28;101971;-62
2023/05/05 10:51:26;;;;;;;2.77;2.30;;;;;;;26.51;46.64;96390.13;4987596;28;105417;-63
2023/05/05 10:54:00;;;;;;;2.93;2.17;;;;;;;26.75;44.71;96383.75;4987480;28;105011;-62
2023/05/05 10:56:31;;;;;;;3.43;2.13;;;;;;;27.00;44.13;96385.09;4989475;28;101775;-62
2023/05/05 10:58:58;;;;;;;2.20;2.00;;;;;;;27.01;45.32;96379.28;4987398;28;103613;-62
2023/05/05 11:01:32;;;;;;;2.80;2.27;;;;;;;26.77;44.05;96376.78;4987770;28;105410;-62
2023/05/05 11:04:19;;;;;;;2.40;2.20;;;;;;;25.73;49.10;96369.28;5000999;28;103136;-62
2023/05/05 11:07:25;;;;;;;1.90;1.80;;;;;;;25.76;48.98;96374.03;5000996;28;105430;-63
2023/05/05 11:09:57;;;;;;;3.63;2.50;;;;;;;26.09;49.13;96363.69;4987802;28;102224;-62
2023/05/05 11:12:24;;;;;;;3.17;2.10;;;;;;;26.29;49.58;96365.38;4988269;28;105278;-63
2023/05/05 11:15:42;;;;;;;2.03;1.93;;;;;;;27.05;46.39;96368.44;4989023;28;102700;-62
2023/05/05 11:18:30;;;;;;;3.13;2.17;;;;;;;26.86;43.67;96352.03;4964137;28;102170;-62
2023/05/05 11:21:16;;;;;;;3.33;2.10;;;;;;;26.88;45.13;96352.47;4936593;28;105147;-62
2023/05/05 11:23:52;;;;;;;2.73;2.20;;;;;;;27.53;44.68;96348.84;4959263;28;103081;-62
2023/05/05 11:26:49;;;;;;;4.03;1.80;;;;;;;27.77;43.37;96351.28;4968626;28;102161;-62
2023/05/05 11:29:15;;;;;;;3.60;1.90;;;;;;;28.15;42.63;96341.13;4947206;28;102880;-62
2023/05/05 11:31:42;;;;;;;1.90;1.80;;;;;;;27.73;42.60;96347.72;4942846;28;103875;-62
2023/05/05 11:34:27;;;;;;;3.33;2.03;;;;;;;28.02;43.49;96349.88;4965881;28;102338;-62
2023/05/05 11:36:58;;;;;;;2.13;1.83;;;;;;;28.23;41.64;96336.56;4928823;28;105135;-62
2023/05/05 11:39:36;;;;;;;2.67;2.03;;;;;;;26.47;40.47;96345.59;4947357;28;102047;-62
2023/05/05 11:42:21;;;;;;;1.70;1.60;;;;;;;26.60;42.04;96332.69;4966111;28;102983;-62
2023/05/05 11:44:48;;;;;;;2.10;1.90;;;;;;;26.66;43.08;96326.63;4955852;28;102690;-63
2023/05/05 11:47:29;;;;;;;3.47;2.10;;;;;;;26.34;43.93;96333.22;4961329;28;102193;-62
2023/05/05 11:49:58;;;;;;;3.00;2.00;;;;;;;26.42;47.25;96329.50;4980159;28;105267;-62
2023/05/05 11:52:26;;;;;;;1.70;1.60;;;;;;;27.03;46.58;96332.53;4995323;28;103220;-62
2023/05/05 11:54:54;;;;;;;2.13;1.93;;;;;;;27.44;45.84;96323.69;4992315;28;102375;-62
2023/05/05 11:57:28;;;;;;;4.20;2.40;;;;;;;26.39;42.29;96326.69;5002283;28;105714;-62